sensor_id;sensor_type;location;lat;lon;timestamp;temperature;humidity
28087;DHT22;15392;48.912;8.380;2023-09-30T00:02:15;23.40;50.50
28087;DHT22;15392;48.912;8.380;2023-09-30T00:04:41;23.40;50.50
28087;DHT22;15392;48.912;8.380;2023-09-30T00:07:06;23.40;50.50
28087;DHT22;15392;48.912;8.380;2023-09-30T00:09:33;23.40;50.50
28087;DHT22;15392;48.912;8.380;2023-09-30T00:11:58;23.40;50.50
28087;DHT22;15392;48.912;8.380;2023-09-30T00:14:25;23.40;50.50
28087;DHT22;15392;48.912;8.380;2023-09-30T00:16:51;23.40;50.60
28087;DHT22;15392;48.912;8.380;2023-09-30T00:19:17;23.50;50.60
28087;DHT22;15392;48.912;8.380;2023-09-30T00:21:42;23.50;50.60
28087;DHT22;15392;48.912;8.380;2023-09-30T00:24:08;23.50;50.60
28087;DHT22;15392;48.912;8.380;2023-09-30T00:26:34;23.50;50.60
28087;DHT22;15392;48.912;8.380;2023-09-30T00:29:00;23.50;50.50
28087;DHT22;15392;48.912;8.380;2023-09-30T00:31:26;23.50;50.50
28087;DHT22;15392;48.912;8.380;2023-09-30T00:33:51;23.50;50.60
28087;DHT22;15392;48.912;8.380;2023-09-30T00:36:17;23.50;50.50
28087;DHT22;15392;48.912;8.380;2023-09-30T00:38:42;23.50;50.50
28087;DHT22;15392;48.912;8.380;2023-09-30T00:41:08;23.50;50.50
28087;DHT22;15392;48.912;8.380;2023-09-30T00:43:34;23.50;50.50
28087;DHT22;15392;48.912;8.380;2023-09-30T00:48:43;23.50;50.90
28087;DHT22;15392;48.912;8.380;2023-09-30T00:51:10;23.60;50.50
28087;DHT22;15392;48.912;8.380;2023-09-30T00:53:36;23.50;51.10
28087;DHT22;15392;48.912;8.380;2023-09-30T00:56:02;23.50;50.50
28087;DHT22;15392;48.912;8.380;2023-09-30T00:58:28;23.50;50.50
28087;DHT22;15392;48.912;8.380;2023-09-30T01:00:56;23.50;50.50
28087;DHT22;15392;48.912;8.380;2023-09-30T01:03:23;23.50;50.50
28087;DHT22;15392;48.912;8.380;2023-09-30T01:05:49;23.50;50.50
28087;DHT22;15392;48.912;8.380;2023-09-30T01:08:16;23.50;50.50
28087;DHT22;15392;48.912;8.380;2023-09-30T01:10:42;23.50;50.60
28087;DHT22;15392;48.912;8.380;2023-09-30T01:13:08;23.40;50.50
28087;DHT22;15392;48.912;8.380;2023-09-30T01:15:34;23.40;50.50
28087;DHT22;15392;48.912;8.380;2023-09-30T01:18:00;23.40;50.50
28087;DHT22;15392;48.912;8.380;2023-09-30T01:20:25;23.40;50.50
28087;DHT22;15392;48.912;8.380;2023-09-30T01:22:53;23.30;50.40
28087;DHT22;15392;48.912;8.380;2023-09-30T01:25:20;23.30;50.50
28087;DHT22;15392;48.912;8.380;2023-09-30T01:27:46;23.30;50.50
28087;DHT22;15392;48.912;8.380;2023-09-30T01:30:13;23.30;50.50
28087;DHT22;15392;48.912;8.380;2023-09-30T01:32:39;23.20;50.50
28087;DHT22;15392;48.912;8.380;2023-09-30T01:35:06;23.20;50.50
28087;DHT22;15392;48.912;8.380;2023-09-30T01:37:32;23.20;50.60
28087;DHT22;15392;48.912;8.380;2023-09-30T01:39:58;23.20;50.60
28087;DHT22;15392;48.912;8.380;2023-09-30T01:42:23;23.10;50.60
28087;DHT22;15392;48.912;8.380;2023-09-30T01:44:49;23.10;50.50
28087;DHT22;15392;48.912;8.380;2023-09-30T01:47:15;23.00;50.50
28087;DHT22;15392;48.912;8.380;2023-09-30T01:49:40;23.00;50.50
28087;DHT22;15392;48.912;8.380;2023-09-30T01:52:06;23.00;50.50
28087;DHT22;15392;48.912;8.380;2023-09-30T01:54:32;22.90;50.50
28087;DHT22;15392;48.912;8.380;2023-09-30T01:57:00;22.90;50.60
28087;DHT22;15392;48.912;8.380;2023-09-30T01:59:26;22.90;50.60
28087;DHT22;15392;48.912;8.380;2023-09-30T02:01:53;22.80;51.20
28087;DHT22;15392;48.912;8.380;2023-09-30T02:04:18;22.80;50.70
28087;DHT22;15392;48.912;8.380;2023-09-30T02:06:44;22.80;50.70
28087;DHT22;15392;48.912;8.380;2023-09-30T02:09:10;22.80;50.70
28087;DHT22;15392;48.912;8.380;2023-09-30T02:11:36;22.80;50.70
28087;DHT22;15392;48.912;8.380;2023-09-30T02:14:03;22.70;50.70
28087;DHT22;15392;48.912;8.380;2023-09-30T02:16:29;22.80;50.70
28087;DHT22;15392;48.912;8.380;2023-09-30T02:18:55;22.70;50.60
28087;DHT22;15392;48.912;8.380;2023-09-30T02:21:21;22.70;50.70
28087;DHT22;15392;48.912;8.380;2023-09-30T02:23:47;22.70;50.70
28087;DHT22;15392;48.912;8.380;2023-09-30T02:26:20;22.70;50.70
28087;DHT22;15392;48.912;8.380;2023-09-30T02:28:47;22.70;50.60
28087;DHT22;15392;48.912;8.380;2023-09-30T02:31:13;22.70;50.60
28087;DHT22;15392;48.912;8.380;2023-09-30T02:33:38;22.70;50.60
28087;DHT22;15392;48.912;8.380;2023-09-30T02:36:08;22.60;50.40
28087;DHT22;15392;48.912;8.380;2023-09-30T02:38:37;22.60;50.40
28087;DHT22;15392;48.912;8.380;2023-09-30T02:41:03;22.60;50.30
28087;DHT22;15392;48.912;8.380;2023-09-30T02:43:29;22.60;50.30
28087;DHT22;15392;48.912;8.380;2023-09-30T02:45:55;22.60;50.40
28087;DHT22;15392;48.912;8.380;2023-09-30T02:48:20;22.60;50.60
28087;DHT22;15392;48.912;8.380;2023-09-30T02:50:47;22.60;50.60
28087;DHT22;15392;48.912;8.380;2023-09-30T02:53:13;22.50;50.60
28087;DHT22;15392;48.912;8.380;2023-09-30T02:55:40;22.60;50.60
28087;DHT22;15392;48.912;8.380;2023-09-30T02:58:08;22.50;50.60
28087;DHT22;15392;48.912;8.380;2023-09-30T03:00:37;22.50;50.50
28087;DHT22;15392;48.912;8.380;2023-09-30T03:03:03;22.50;50.60
28087;DHT22;15392;48.912;8.380;2023-09-30T03:05:30;22.60;50.60
28087;DHT22;15392;48.912;8.380;2023-09-30T03:07:59;22.60;50.50
28087;DHT22;15392;48.912;8.380;2023-09-30T03:10:26;22.60;50.50
28087;DHT22;15392;48.912;8.380;2023-09-30T03:12:53;22.60;50.50
28087;DHT22;15392;48.912;8.380;2023-09-30T03:15:19;22.50;50.50
28087;DHT22;15392;48.912;8.380;2023-09-30T03:17:45;22.50;50.50
28087;DHT22;15392;48.912;8.380;2023-09-30T03:20:11;22.50;50.50
28087;DHT22;15392;48.912;8.380;2023-09-30T03:22:41;22.50;50.40
28087;DHT22;15392;48.912;8.380;2023-09-30T03:25:13;22.50;50.30
28087;DHT22;15392;48.912;8.380;2023-09-30T03:27:41;22.50;50.30
28087;DHT22;15392;48.912;8.380;2023-09-30T03:30:08;22.50;50.30
28087;DHT22;15392;48.912;8.380;2023-09-30T03:32:34;22.50;50.30
28087;DHT22;15392;48.912;8.380;2023-09-30T03:35:11;22.40;50.30
28087;DHT22;15392;48.912;8.380;2023-09-30T03:37:40;22.40;50.50
28087;DHT22;15392;48.912;8.380;2023-09-30T03:40:07;22.30;50.30
28087;DHT22;15392;48.912;8.380;2023-09-30T03:42:39;22.30;50.40
28087;DHT22;15392;48.912;8.380;2023-09-30T03:45:06;22.40;50.40
28087;DHT22;15392;48.912;8.380;2023-09-30T03:47:35;22.30;50.40
28087;DHT22;15392;48.912;8.380;2023-09-30T03:50:02;22.30;50.50
28087;DHT22;15392;48.912;8.380;2023-09-30T03:52:29;22.30;50.60
28087;DHT22;15392;48.912;8.380;2023-09-30T03:54:59;22.30;50.60
28087;DHT22;15392;48.912;8.380;2023-09-30T03:57:28;22.30;50.60
28087;DHT22;15392;48.912;8.380;2023-09-30T03:59:54;22.30;50.50
28087;DHT22;15392;48.912;8.380;2023-09-30T04:02:20;22.30;50.60
28087;DHT22;15392;48.912;8.380;2023-09-30T04:04:46;22.20;50.60
28087;DHT22;15392;48.912;8.380;2023-09-30T04:07:12;22.20;50.70
28087;DHT22;15392;48.912;8.380;2023-09-30T04:09:38;22.20;50.70
28087;DHT22;15392;48.912;8.380;2023-09-30T04:12:05;22.20;50.70
28087;DHT22;15392;48.912;8.380;2023-09-30T04:14:30;22.20;50.70
28087;DHT22;15392;48.912;8.380;2023-09-30T04:16:56;22.20;50.70
28087;DHT22;15392;48.912;8.380;2023-09-30T04:19:22;22.20;50.70
28087;DHT22;15392;48.912;8.380;2023-09-30T04:21:47;22.20;50.70
28087;DHT22;15392;48.912;8.380;2023-09-30T04:24:13;22.20;50.70
28087;DHT22;15392;48.912;8.380;2023-09-30T04:26:39;22.20;50.70
28087;DHT22;15392;48.912;8.380;2023-09-30T04:29:06;22.20;50.60
28087;DHT22;15392;48.912;8.380;2023-09-30T04:31:33;22.20;50.60
28087;DHT22;15392;48.912;8.380;2023-09-30T04:33:58;22.20;50.60
28087;DHT22;15392;48.912;8.380;2023-09-30T04:36:24;22.10;50.50
28087;DHT22;15392;48.912;8.380;2023-09-30T04:38:50;22.10;50.50
28087;DHT22;15392;48.912;8.380;2023-09-30T04:41:15;22.10;50.70
28087;DHT22;15392;48.912;8.380;2023-09-30T04:43:41;22.10;50.70
28087;DHT22;15392;48.912;8.380;2023-09-30T04:46:09;22.10;50.80
28087;DHT22;15392;48.912;8.380;2023-09-30T04:48:35;22.10;50.90
28087;DHT22;15392;48.912;8.380;2023-09-30T04:51:01;22.00;50.90
28087;DHT22;15392;48.912;8.380;2023-09-30T04:53:30;22.00;50.90
28087;DHT22;15392;48.912;8.380;2023-09-30T04:55:56;22.00;50.90
28087;DHT22;15392;48.912;8.380;2023-09-30T04:58:21;22.00;51.00
28087;DHT22;15392;48.912;8.380;2023-09-30T05:00:49;22.00;50.90
28087;DHT22;15392;48.912;8.380;2023-09-30T05:03:15;22.00;50.80
28087;DHT22;15392;48.912;8.380;2023-09-30T05:05:41;22.00;50.70
28087;DHT22;15392;48.912;8.380;2023-09-30T05:08:07;22.00;50.60
28087;DHT22;15392;48.912;8.380;2023-09-30T05:10:32;22.00;50.60
28087;DHT22;15392;48.912;8.380;2023-09-30T05:12:59;22.00;50.60
28087;DHT22;15392;48.912;8.380;2023-09-30T05:15:24;22.00;50.50
28087;DHT22;15392;48.912;8.380;2023-09-30T05:17:51;21.90;50.50
28087;DHT22;15392;48.912;8.380;2023-09-30T05:20:17;21.90;50.50
28087;DHT22;15392;48.912;8.380;2023-09-30T05:22:43;21.90;50.40
28087;DHT22;15392;48.912;8.380;2023-09-30T05:25:15;21.90;50.40
28087;DHT22;15392;48.912;8.380;2023-09-30T05:27:42;21.90;50.30
28087;DHT22;15392;48.912;8.380;2023-09-30T05:30:13;21.80;50.30
28087;DHT22;15392;48.912;8.380;2023-09-30T05:32:41;21.80;50.20
28087;DHT22;15392;48.912;8.380;2023-09-30T05:35:07;21.80;50.30
28087;DHT22;15392;48.912;8.380;2023-09-30T05:37:41;21.80;50.40
28087;DHT22;15392;48.912;8.380;2023-09-30T05:40:08;21.80;50.40
28087;DHT22;15392;48.912;8.380;2023-09-30T05:43:04;21.70;50.30
28087;DHT22;15392;48.912;8.380;2023-09-30T05:45:32;21.70;50.30
28087;DHT22;15392;48.912;8.380;2023-09-30T05:48:02;21.70;50.40
28087;DHT22;15392;48.912;8.380;2023-09-30T05:50:31;21.70;50.40
28087;DHT22;15392;48.912;8.380;2023-09-30T05:52:59;21.60;50.30
28087;DHT22;15392;48.912;8.380;2023-09-30T05:55:28;21.60;50.20
28087;DHT22;15392;48.912;8.380;2023-09-30T05:57:55;21.60;50.30
28087;DHT22;15392;48.912;8.380;2023-09-30T06:00:21;21.60;50.30
28087;DHT22;15392;48.912;8.380;2023-09-30T06:02:57;21.50;50.40
28087;DHT22;15392;48.912;8.380;2023-09-30T06:05:23;21.50;50.40
28087;DHT22;15392;48.912;8.380;2023-09-30T06:07:49;21.50;50.40
28087;DHT22;15392;48.912;8.380;2023-09-30T06:10:15;21.50;50.50
28087;DHT22;15392;48.912;8.380;2023-09-30T06:12:41;21.50;50.40
28087;DHT22;15392;48.912;8.380;2023-09-30T06:15:07;21.50;50.50
28087;DHT22;15392;48.912;8.380;2023-09-30T06:17:33;21.50;50.50
28087;DHT22;15392;48.912;8.380;2023-09-30T06:19:59;21.40;50.40
28087;DHT22;15392;48.912;8.380;2023-09-30T06:22:34;21.40;50.50
28087;DHT22;15392;48.912;8.380;2023-09-30T06:25:01;21.40;50.60
28087;DHT22;15392;48.912;8.380;2023-09-30T06:27:29;21.40;50.70
28087;DHT22;15392;48.912;8.380;2023-09-30T06:29:55;21.50;50.80
28087;DHT22;15392;48.912;8.380;2023-09-30T06:32:20;21.40;50.90
28087;DHT22;15392;48.912;8.380;2023-09-30T06:34:47;21.50;51.00
28087;DHT22;15392;48.912;8.380;2023-09-30T06:37:12;21.50;51.50
28087;DHT22;15392;48.912;8.380;2023-09-30T06:39:39;21.50;50.90
28087;DHT22;15392;48.912;8.380;2023-09-30T06:42:04;21.50;50.90
28087;DHT22;15392;48.912;8.380;2023-09-30T06:44:30;21.60;50.90
28087;DHT22;15392;48.912;8.380;2023-09-30T06:46:56;21.60;50.90
28087;DHT22;15392;48.912;8.380;2023-09-30T06:49:22;21.60;50.90
28087;DHT22;15392;48.912;8.380;2023-09-30T06:51:47;21.60;50.80
28087;DHT22;15392;48.912;8.380;2023-09-30T06:54:13;21.60;50.70
28087;DHT22;15392;48.912;8.380;2023-09-30T06:56:39;21.70;50.70
28087;DHT22;15392;48.912;8.380;2023-09-30T06:59:06;21.70;50.70
28087;DHT22;15392;48.912;8.380;2023-09-30T07:01:32;21.70;50.60
28087;DHT22;15392;48.912;8.380;2023-09-30T07:03:57;21.70;50.40
28087;DHT22;15392;48.912;8.380;2023-09-30T07:06:24;21.80;50.50
28087;DHT22;15392;48.912;8.380;2023-09-30T07:08:50;21.70;50.50
28087;DHT22;15392;48.912;8.380;2023-09-30T07:11:16;21.80;50.50
28087;DHT22;15392;48.912;8.380;2023-09-30T07:13:42;21.80;50.70
28087;DHT22;15392;48.912;8.380;2023-09-30T07:16:08;21.90;50.60
28087;DHT22;15392;48.912;8.380;2023-09-30T07:18:33;21.90;50.50
28087;DHT22;15392;48.912;8.380;2023-09-30T07:20:59;21.90;50.50
28087;DHT22;15392;48.912;8.380;2023-09-30T07:23:25;22.00;50.60
28087;DHT22;15392;48.912;8.380;2023-09-30T07:25:50;22.10;50.60
28087;DHT22;15392;48.912;8.380;2023-09-30T07:28:16;22.10;50.50
28087;DHT22;15392;48.912;8.380;2023-09-30T07:30:42;22.20;50.40
28087;DHT22;15392;48.912;8.380;2023-09-30T07:33:09;22.30;50.40
28087;DHT22;15392;48.912;8.380;2023-09-30T07:35:34;22.30;50.20
28087;DHT22;15392;48.912;8.380;2023-09-30T07:38:01;22.40;50.20
28087;DHT22;15392;48.912;8.380;2023-09-30T07:40:27;22.40;50.10
28087;DHT22;15392;48.912;8.380;2023-09-30T07:42:53;22.50;50.10
28087;DHT22;15392;48.912;8.380;2023-09-30T07:45:19;22.60;50.10
28087;DHT22;15392;48.912;8.380;2023-09-30T07:47:46;22.70;50.10
28087;DHT22;15392;48.912;8.380;2023-09-30T07:50:12;22.70;50.00
28087;DHT22;15392;48.912;8.380;2023-09-30T07:52:38;22.80;50.10
28087;DHT22;15392;48.912;8.380;2023-09-30T07:55:05;22.90;50.00
28087;DHT22;15392;48.912;8.380;2023-09-30T07:57:31;22.90;49.90
28087;DHT22;15392;48.912;8.380;2023-09-30T07:59:58;23.00;49.90
28087;DHT22;15392;48.912;8.380;2023-09-30T08:02:24;23.10;49.90
28087;DHT22;15392;48.912;8.380;2023-09-30T08:04:53;23.20;49.90
28087;DHT22;15392;48.912;8.380;2023-09-30T08:07:19;23.20;49.90
28087;DHT22;15392;48.912;8.380;2023-09-30T08:09:44;23.30;49.90
28087;DHT22;15392;48.912;8.380;2023-09-30T08:12:10;23.40;49.80
28087;DHT22;15392;48.912;8.380;2023-09-30T08:14:35;23.50;49.80
28087;DHT22;15392;48.912;8.380;2023-09-30T08:17:01;23.60;49.70
28087;DHT22;15392;48.912;8.380;2023-09-30T08:19:28;23.70;49.60
28087;DHT22;15392;48.912;8.380;2023-09-30T08:21:53;23.80;49.70
28087;DHT22;15392;48.912;8.380;2023-09-30T08:24:19;23.90;49.70
28087;DHT22;15392;48.912;8.380;2023-09-30T08:26:45;24.10;49.70
28087;DHT22;15392;48.912;8.380;2023-09-30T08:29:10;24.30;49.60
28087;DHT22;15392;48.912;8.380;2023-09-30T08:31:36;24.40;49.50
28087;DHT22;15392;48.912;8.380;2023-09-30T08:34:02;24.60;49.60
28087;DHT22;15392;48.912;8.380;2023-09-30T08:36:29;24.90;49.70
28087;DHT22;15392;48.912;8.380;2023-09-30T08:38:56;25.20;49.90
28087;DHT22;15392;48.912;8.380;2023-09-30T08:41:31;25.60;50.00
28087;DHT22;15392;48.912;8.380;2023-09-30T08:44:00;26.00;49.70
28087;DHT22;15392;48.912;8.380;2023-09-30T08:46:35;26.40;49.30
28087;DHT22;15392;48.912;8.380;2023-09-30T08:49:02;26.70;48.50
28087;DHT22;15392;48.912;8.380;2023-09-30T08:51:29;26.90;47.90
28087;DHT22;15392;48.912;8.380;2023-09-30T08:53:56;27.10;47.50
28087;DHT22;15392;48.912;8.380;2023-09-30T08:56:28;27.20;47.30
28087;DHT22;15392;48.912;8.380;2023-09-30T08:58:57;27.40;47.10
28087;DHT22;15392;48.912;8.380;2023-09-30T09:01:29;27.50;47.00
28087;DHT22;15392;48.912;8.380;2023-09-30T09:03:56;27.60;46.80
28087;DHT22;15392;48.912;8.380;2023-09-30T09:06:23;27.70;46.90
28087;DHT22;15392;48.912;8.380;2023-09-30T09:08:50;27.80;46.70
28087;DHT22;15392;48.912;8.380;2023-09-30T09:11:17;27.90;46.60
28087;DHT22;15392;48.912;8.380;2023-09-30T09:13:51;28.00;46.50
28087;DHT22;15392;48.912;8.380;2023-09-30T09:16:21;28.00;46.00
28087;DHT22;15392;48.912;8.380;2023-09-30T09:18:48;28.00;46.00
28087;DHT22;15392;48.912;8.380;2023-09-30T09:21:15;27.90;45.90
28087;DHT22;15392;48.912;8.380;2023-09-30T09:23:46;27.80;45.80
28087;DHT22;15392;48.912;8.380;2023-09-30T09:26:29;27.70;45.80
28087;DHT22;15392;48.912;8.380;2023-09-30T09:29:06;27.60;45.30
28087;DHT22;15392;48.912;8.380;2023-09-30T09:31:35;27.50;45.60
28087;DHT22;15392;48.912;8.380;2023-09-30T09:34:13;27.40;45.90
28087;DHT22;15392;48.912;8.380;2023-09-30T09:39:06;27.20;46.30
28087;DHT22;15392;48.912;8.380;2023-09-30T09:41:49;27.00;46.30
28087;DHT22;15392;48.912;8.380;2023-09-30T09:44:17;27.00;45.80
28087;DHT22;15392;48.912;8.380;2023-09-30T09:46:47;26.90;46.60
28087;DHT22;15392;48.912;8.380;2023-09-30T09:49:16;26.80;46.50
28087;DHT22;15392;48.912;8.380;2023-09-30T09:51:44;26.70;46.40
28087;DHT22;15392;48.912;8.380;2023-09-30T09:54:11;26.60;46.50
28087;DHT22;15392;48.912;8.380;2023-09-30T09:56:38;26.60;46.70
28087;DHT22;15392;48.912;8.380;2023-09-30T09:59:05;26.50;46.70
28087;DHT22;15392;48.912;8.380;2023-09-30T10:01:33;26.50;46.90
28087;DHT22;15392;48.912;8.380;2023-09-30T10:04:05;26.40;46.90
28087;DHT22;15392;48.912;8.380;2023-09-30T10:06:31;26.40;47.00
28087;DHT22;15392;48.912;8.380;2023-09-30T10:09:06;26.40;47.00
28087;DHT22;15392;48.912;8.380;2023-09-30T10:11:35;26.30;47.00
28087;DHT22;15392;48.912;8.380;2023-09-30T10:14:01;26.20;46.90
28087;DHT22;15392;48.912;8.380;2023-09-30T10:19:20;26.10;46.70
28087;DHT22;15392;48.912;8.380;2023-09-30T10:24:43;26.00;46.60
28087;DHT22;15392;48.912;8.380;2023-09-30T10:35:19;25.90;46.80
28087;DHT22;15392;48.912;8.380;2023-09-30T10:37:46;25.90;47.40
28087;DHT22;15392;48.912;8.380;2023-09-30T10:40:29;25.90;47.40
28087;DHT22;15392;48.912;8.380;2023-09-30T10:42:55;25.80;47.00
28087;DHT22;15392;48.912;8.380;2023-09-30T10:51:13;25.80;46.90
28087;DHT22;15392;48.912;8.380;2023-09-30T10:53:51;25.80;47.20
28087;DHT22;15392;48.912;8.380;2023-09-30T10:56:20;25.80;47.30
28087;DHT22;15392;48.912;8.380;2023-09-30T10:58:52;25.80;48.00
28087;DHT22;15392;48.912;8.380;2023-09-30T11:01:20;25.80;47.30
28087;DHT22;15392;48.912;8.380;2023-09-30T11:03:47;25.80;47.50
28087;DHT22;15392;48.912;8.380;2023-09-30T11:06:17;25.90;47.40
28087;DHT22;15392;48.912;8.380;2023-09-30T11:08:57;25.90;47.90
28087;DHT22;15392;48.912;8.380;2023-09-30T11:11:35;25.90;46.90
28087;DHT22;15392;48.912;8.380;2023-09-30T11:14:23;25.90;46.80
28087;DHT22;15392;48.912;8.380;2023-09-30T11:16:55;25.90;46.90
28087;DHT22;15392;48.912;8.380;2023-09-30T11:19:22;25.90;47.10
28087;DHT22;15392;48.912;8.380;2023-09-30T11:21:51;25.90;47.10
28087;DHT22;15392;48.912;8.380;2023-09-30T11:24:18;25.90;47.00
28087;DHT22;15392;48.912;8.380;2023-09-30T11:26:45;25.90;46.90
28087;DHT22;15392;48.912;8.380;2023-09-30T11:29:16;25.90;46.80
28087;DHT22;15392;48.912;8.380;2023-09-30T11:31:42;26.00;46.70
28087;DHT22;15392;48.912;8.380;2023-09-30T11:34:10;26.00;46.80
28087;DHT22;15392;48.912;8.380;2023-09-30T11:36:48;25.90;46.90
28087;DHT22;15392;48.912;8.380;2023-09-30T11:39:25;26.00;46.70
28087;DHT22;15392;48.912;8.380;2023-09-30T11:41:53;26.00;46.50
28087;DHT22;15392;48.912;8.380;2023-09-30T11:44:23;26.00;46.90
28087;DHT22;15392;48.912;8.380;2023-09-30T11:46:57;26.00;46.90
28087;DHT22;15392;48.912;8.380;2023-09-30T11:49:40;26.00;46.70
28087;DHT22;15392;48.912;8.380;2023-09-30T11:52:10;26.00;46.50
28087;DHT22;15392;48.912;8.380;2023-09-30T11:54:42;26.10;47.00
28087;DHT22;15392;48.912;8.380;2023-09-30T11:57:14;26.10;46.60
28087;DHT22;15392;48.912;8.380;2023-09-30T11:59:41;26.10;46.50
28087;DHT22;15392;48.912;8.380;2023-09-30T12:02:09;26.10;46.80
28087;DHT22;15392;48.912;8.380;2023-09-30T12:04:35;26.10;46.70
28087;DHT22;15392;48.912;8.380;2023-09-30T12:07:02;26.10;46.70
28087;DHT22;15392;48.912;8.380;2023-09-30T12:09:28;26.10;46.70
28087;DHT22;15392;48.912;8.380;2023-09-30T12:11:55;26.10;46.60
28087;DHT22;15392;48.912;8.380;2023-09-30T12:14:23;26.10;46.60
28087;DHT22;15392;48.912;8.380;2023-09-30T12:16:49;26.10;46.60
28087;DHT22;15392;48.912;8.380;2023-09-30T12:19:19;26.10;46.60
28087;DHT22;15392;48.912;8.380;2023-09-30T12:21:46;26.10;46.40
28087;DHT22;15392;48.912;8.380;2023-09-30T12:24:15;26.10;46.50
28087;DHT22;15392;48.912;8.380;2023-09-30T12:26:47;26.10;46.40
28087;DHT22;15392;48.912;8.380;2023-09-30T12:29:15;26.10;46.40
28087;DHT22;15392;48.912;8.380;2023-09-30T12:31:49;26.10;46.30
28087;DHT22;15392;48.912;8.380;2023-09-30T12:34:15;26.10;46.30
28087;DHT22;15392;48.912;8.380;2023-09-30T12:36:42;26.10;46.50
28087;DHT22;15392;48.912;8.380;2023-09-30T12:39:11;26.10;46.50
28087;DHT22;15392;48.912;8.380;2023-09-30T12:41:44;26.10;46.50
28087;DHT22;15392;48.912;8.380;2023-09-30T12:44:10;26.10;46.50
28087;DHT22;15392;48.912;8.380;2023-09-30T12:46:37;26.10;46.70
28087;DHT22;15392;48.912;8.380;2023-09-30T12:49:05;26.10;46.60
28087;DHT22;15392;48.912;8.380;2023-09-30T12:51:33;26.20;46.50
28087;DHT22;15392;48.912;8.380;2023-09-30T12:54:00;26.20;46.40
28087;DHT22;15392;48.912;8.380;2023-09-30T12:56:26;26.20;46.60
28087;DHT22;15392;48.912;8.380;2023-09-30T12:58:54;26.20;46.60
28087;DHT22;15392;48.912;8.380;2023-09-30T13:01:21;26.30;46.50
28087;DHT22;15392;48.912;8.380;2023-09-30T13:03:48;26.30;46.30
28087;DHT22;15392;48.912;8.380;2023-09-30T13:06:14;26.30;46.20
28087;DHT22;15392;48.912;8.380;2023-09-30T13:08:41;26.30;46.00
28087;DHT22;15392;48.912;8.380;2023-09-30T13:11:08;26.40;46.00
28087;DHT22;15392;48.912;8.380;2023-09-30T13:13:34;26.40;45.80
28087;DHT22;15392;48.912;8.380;2023-09-30T13:16:01;26.40;45.80
28087;DHT22;15392;48.912;8.380;2023-09-30T13:18:27;26.40;45.80
28087;DHT22;15392;48.912;8.380;2023-09-30T13:20:53;26.40;45.80
28087;DHT22;15392;48.912;8.380;2023-09-30T13:23:19;26.40;45.80
28087;DHT22;15392;48.912;8.380;2023-09-30T13:25:45;26.40;45.70
28087;DHT22;15392;48.912;8.380;2023-09-30T13:28:11;26.40;45.60
28087;DHT22;15392;48.912;8.380;2023-09-30T13:30:37;26.40;45.60
28087;DHT22;15392;48.912;8.380;2023-09-30T13:33:03;26.40;45.80
28087;DHT22;15392;48.912;8.380;2023-09-30T13:35:29;26.40;45.80
28087;DHT22;15392;48.912;8.380;2023-09-30T13:37:55;26.40;45.80
28087;DHT22;15392;48.912;8.380;2023-09-30T13:40:20;26.40;45.70
28087;DHT22;15392;48.912;8.380;2023-09-30T13:42:46;26.40;45.60
28087;DHT22;15392;48.912;8.380;2023-09-30T13:45:12;26.40;45.50
28087;DHT22;15392;48.912;8.380;2023-09-30T13:47:38;26.40;45.40
28087;DHT22;15392;48.912;8.380;2023-09-30T13:50:04;26.40;45.40
28087;DHT22;15392;48.912;8.380;2023-09-30T13:52:36;26.40;45.40
28087;DHT22;15392;48.912;8.380;2023-09-30T13:55:02;26.40;45.50
28087;DHT22;15392;48.912;8.380;2023-09-30T13:57:30;26.40;45.80
28087;DHT22;15392;48.912;8.380;2023-09-30T13:59:56;26.40;45.80
28087;DHT22;15392;48.912;8.380;2023-09-30T14:02:22;26.40;45.90
28087;DHT22;15392;48.912;8.380;2023-09-30T14:04:48;26.40;45.70
28087;DHT22;15392;48.912;8.380;2023-09-30T14:07:15;26.50;45.40
28087;DHT22;15392;48.912;8.380;2023-09-30T14:09:43;26.50;45.50
28087;DHT22;15392;48.912;8.380;2023-09-30T14:12:09;26.40;45.20
28087;DHT22;15392;48.912;8.380;2023-09-30T14:14:35;26.40;45.20
28087;DHT22;15392;48.912;8.380;2023-09-30T14:17:01;26.40;45.20
28087;DHT22;15392;48.912;8.380;2023-09-30T14:19:33;26.40;45.20
28087;DHT22;15392;48.912;8.380;2023-09-30T14:21:59;26.40;45.00
28087;DHT22;15392;48.912;8.380;2023-09-30T14:24:25;26.50;45.10
28087;DHT22;15392;48.912;8.380;2023-09-30T14:26:51;26.50;44.90
28087;DHT22;15392;48.912;8.380;2023-09-30T14:29:17;26.50;44.80
28087;DHT22;15392;48.912;8.380;2023-09-30T14:31:42;26.50;44.70
28087;DHT22;15392;48.912;8.380;2023-09-30T14:34:08;26.50;44.70
28087;DHT22;15392;48.912;8.380;2023-09-30T14:36:34;26.50;44.70
28087;DHT22;15392;48.912;8.380;2023-09-30T14:39:00;26.50;44.60
28087;DHT22;15392;48.912;8.380;2023-09-30T14:41:25;26.60;44.80
28087;DHT22;15392;48.912;8.380;2023-09-30T14:43:51;26.50;44.40
28087;DHT22;15392;48.912;8.380;2023-09-30T14:46:17;26.60;44.50
28087;DHT22;15392;48.912;8.380;2023-09-30T14:48:42;26.60;44.80
28087;DHT22;15392;48.912;8.380;2023-09-30T14:51:09;26.60;44.90
28087;DHT22;15392;48.912;8.380;2023-09-30T14:53:34;26.60;45.10
28087;DHT22;15392;48.912;8.380;2023-09-30T14:56:00;26.60;44.60
28087;DHT22;15392;48.912;8.380;2023-09-30T14:58:26;26.60;45.00
28087;DHT22;15392;48.912;8.380;2023-09-30T15:00:52;26.60;45.40
28087;DHT22;15392;48.912;8.380;2023-09-30T15:03:19;26.60;45.00
28087;DHT22;15392;48.912;8.380;2023-09-30T15:05:47;26.60;44.90
28087;DHT22;15392;48.912;8.380;2023-09-30T15:08:14;26.60;44.70
28087;DHT22;15392;48.912;8.380;2023-09-30T15:10:40;26.60;44.80
28087;DHT22;15392;48.912;8.380;2023-09-30T15:13:06;26.60;44.80
28087;DHT22;15392;48.912;8.380;2023-09-30T15:15:36;26.60;44.70
28087;DHT22;15392;48.912;8.380;2023-09-30T15:18:02;26.60;44.10
28087;DHT22;15392;48.912;8.380;2023-09-30T15:20:28;26.60;44.40
28087;DHT22;15392;48.912;8.380;2023-09-30T15:22:54;26.60;44.40
28087;DHT22;15392;48.912;8.380;2023-09-30T15:25:20;26.50;44.40
28087;DHT22;15392;48.912;8.380;2023-09-30T15:27:46;26.60;44.50
28087;DHT22;15392;48.912;8.380;2023-09-30T15:30:13;26.60;44.40
28087;DHT22;15392;48.912;8.380;2023-09-30T15:32:39;26.50;44.40
28087;DHT22;15392;48.912;8.380;2023-09-30T15:35:07;26.50;44.30
28087;DHT22;15392;48.912;8.380;2023-09-30T15:37:34;26.50;44.30
28087;DHT22;15392;48.912;8.380;2023-09-30T15:40:00;26.50;44.10
28087;DHT22;15392;48.912;8.380;2023-09-30T15:42:26;26.50;44.30
28087;DHT22;15392;48.912;8.380;2023-09-30T15:44:51;26.50;44.30
28087;DHT22;15392;48.912;8.380;2023-09-30T15:47:21;26.50;44.20
28087;DHT22;15392;48.912;8.380;2023-09-30T15:49:47;26.50;44.20
28087;DHT22;15392;48.912;8.380;2023-09-30T15:52:13;26.40;44.20
28087;DHT22;15392;48.912;8.380;2023-09-30T15:54:39;26.50;44.10
28087;DHT22;15392;48.912;8.380;2023-09-30T15:57:05;26.40;44.20